Time;durP1;ratioP1;P1;durP2;ratioP2;P2;SDS_P1;SDS_P2;PMS_P1;PMS_P2;Temp;Humidity;BMP_temperature;BMP_pressure;BME280_temperature;BME280_humidity;BME280_pressure;Samples;Min_cycle;Max_cycle;Signal;HPM_P1;HPM_P2
2024/03/11 00:02:07;;;;;;;2.23;1.17;;;;;;;7.67;100.00;94688.56;5039960;28;20301;-68
2024/03/11 00:04:35;;;;;;;2.03;1.17;;;;;;;7.95;100.00;94692.69;5039366;28;20221;-67
2024/03/11 00:07:04;;;;;;;1.93;0.90;;;;;;;7.64;100.00;94707.31;5040491;28;20215;-67
2024/03/11 00:09:32;;;;;;;1.00;0.90;;;;;;;7.78;100.00;94701.09;5040128;28;20343;-68
2024/03/11 00:12:00;;;;;;;1.27;1.17;;;;;;;7.74;100.00;94702.50;5040225;28;20224;-68
2024/03/11 00:14:28;;;;;;;1.87;1.03;;;;;;;7.73;100.00;94712.19;5040037;28;20593;-67
2024/03/11 00:16:55;;;;;;;1.73;0.90;;;;;;;7.44;100.00;94703.78;5039092;28;20294;-68
2024/03/11 00:19:22;;;;;;;1.17;0.80;;;;;;;7.58;100.00;94716.75;5040034;28;20578;-68
2024/03/11 00:21:54;;;;;;;0.97;0.80;;;;;;;7.70;100.00;94715.22;5039918;28;20205;-67
2024/03/11 00:24:21;;;;;;;1.00;0.90;;;;;;;7.67;100.00;94722.66;5039420;28;20235;-68
2024/03/11 00:26:49;;;;;;;1.87;0.77;;;;;;;7.71;100.00;94721.25;5039520;28;20197;-67
2024/03/11 00:29:16;;;;;;;0.77;0.77;;;;;;;7.51;100.00;94723.78;5039092;28;20626;-67
2024/03/11 00:31:42;;;;;;;1.23;1.10;;;;;;;7.48;100.00;94726.78;5037971;28;20205;-68
2024/03/11 00:34:09;;;;;;;1.50;0.70;;;;;;;7.44;100.00;94725.56;5038435;28;20236;-67
2024/03/11 00:36:36;;;;;;;1.07;0.70;;;;;;;7.59;100.00;94725.44;5038103;28;20490;-67
2024/03/11 00:39:04;;;;;;;0.80;0.80;;;;;;;7.48;100.00;94721.53;5038511;28;20212;-68
2024/03/11 00:41:32;;;;;;;0.50;0.50;;;;;;;7.37;100.00;94723.94;5038593;28;20201;-68
2024/03/11 00:43:59;;;;;;;0.50;0.50;;;;;;;7.41;100.00;94714.69;5038525;28;20571;-67
2024/03/11 00:46:26;;;;;;;1.43;0.70;;;;;;;7.48;100.00;94718.13;5036060;28;20197;-67
2024/03/11 00:48:52;;;;;;;1.87;0.80;;;;;;;7.46;100.00;94725.38;5037879;28;20211;-67
2024/03/11 00:51:21;;;;;;;0.70;0.60;;;;;;;7.42;100.00;94732.00;5038710;28;20235;-67
2024/03/11 00:53:48;;;;;;;0.73;0.73;;;;;;;7.38;100.00;94723.75;5038319;28;20460;-67
2024/03/11 00:56:15;;;;;;;0.67;0.63;;;;;;;7.55;100.00;94725.03;5038263;28;20264;-68
2024/03/11 00:58:42;;;;;;;1.23;0.70;;;;;;;7.42;100.00;94724.13;5038841;28;20557;-67
2024/03/11 01:01:10;;;;;;;0.83;0.70;;;;;;;7.42;100.00;94724.13;5037610;28;20201;-68
2024/03/11 01:03:37;;;;;;;1.00;0.60;;;;;;;7.55;100.00;94732.09;5037805;28;20220;-67
2024/03/11 01:06:04;;;;;;;2.00;0.83;;;;;;;7.49;100.00;94725.00;5038154;28;20560;-68
2024/03/11 01:08:31;;;;;;;0.97;0.70;;;;;;;7.42;100.00;94730.19;5038435;28;20306;-67
2024/03/11 01:10:57;;;;;;;0.60;0.60;;;;;;;7.34;100.00;94740.03;5037635;28;20363;-68
2024/03/11 01:13:25;;;;;;;0.80;0.70;;;;;;;7.51;100.00;94736.06;5038088;28;20215;-67
2024/03/11 01:15:52;;;;;;;1.07;0.77;;;;;;;7.18;100.00;94731.66;5038365;28;20230;-68
2024/03/11 01:18:19;;;;;;;0.70;0.70;;;;;;;7.08;100.00;94737.25;5037626;28;20201;-68
2024/03/11 01:20:45;;;;;;;0.70;0.60;;;;;;;6.99;100.00;94735.00;5038335;28;20891;-68
2024/03/11 01:23:12;;;;;;;1.07;0.70;;;;;;;6.90;100.00;94734.31;5038403;28;20282;-68
2024/03/11 01:25:39;;;;;;;0.70;0.70;;;;;;;7.14;100.00;94738.28;5037453;28;20208;-67
2024/03/11 01:28:08;;;;;;;0.60;0.50;;;;;;;7.21;100.00;94749.63;5037750;28;20790;-67
2024/03/11 01:30:36;;;;;;;0.73;0.70;;;;;;;7.25;100.00;94756.09;5038552;28;20675;-67
2024/03/11 01:33:04;;;;;;;1.67;0.70;;;;;;;6.91;100.00;94753.44;5038239;28;20251;-68
2024/03/11 01:35:31;;;;;;;1.07;0.80;;;;;;;7.08;100.00;94754.78;5037429;28;20320;-68
2024/03/11 01:37:58;;;;;;;0.90;0.50;;;;;;;7.10;100.00;94763.25;5037587;28;20606;-67
2024/03/11 01:40:27;;;;;;;1.47;0.70;;;;;;;7.27;100.00;94776.66;5038146;28;20208;-67
2024/03/11 01:42:54;;;;;;;0.70;0.70;;;;;;;7.03;100.00;94775.50;5039935;28;20301;-68
2024/03/11 01:45:22;;;;;;;0.83;0.60;;;;;;;7.02;100.00;94771.25;5041298;28;20232;-68
2024/03/11 01:47:52;;;;;;;1.00;0.80;;;;;;;7.18;100.00;94777.00;5042249;28;20360;-67
2024/03/11 01:50:19;;;;;;;1.47;0.80;;;;;;;6.78;100.00;94785.59;5041571;28;20282;-68
2024/03/11 01:52:49;;;;;;;0.90;0.70;;;;;;;6.96;100.00;94772.00;5042705;28;20225;-67
2024/03/11 01:55:16;;;;;;;1.60;0.90;;;;;;;6.69;100.00;94785.88;5042087;28;20231;-68
2024/03/11 01:57:43;;;;;;;0.70;0.70;;;;;;;6.70;100.00;94790.13;5042079;28;20205;-68
2024/03/11 02:00:10;;;;;;;1.17;0.60;;;;;;;6.87;100.00;94786.25;5042099;28;20211;-67
2024/03/11 02:02:38;;;;;;;1.03;0.70;;;;;;;6.71;100.00;94789.16;5042474;28;20197;-67
2024/03/11 02:05:09;;;;;;;0.70;0.70;;;;;;;6.82;100.00;94791.22;5042054;28;20220;-68
2024/03/11 02:07:36;;;;;;;1.27;0.90;;;;;;;6.88;100.00;94790.47;5042848;28;20259;-67
2024/03/11 02:10:07;;;;;;;0.70;0.70;;;;;;;6.90;100.00;94799.78;5041674;28;20725;-67
2024/03/11 02:12:35;;;;;;;1.17;0.80;;;;;;;6.74;100.00;94802.63;5041975;28;20233;-68
2024/03/11 02:15:01;;;;;;;1.07;0.90;;;;;;;6.66;100.00;94802.78;5040590;28;20236;-68
2024/03/11 02:17:28;;;;;;;2.23;1.00;;;;;;;6.56;100.00;94813.75;5042196;28;20201;-67
2024/03/11 02:19:54;;;;;;;1.00;0.90;;;;;;;6.62;100.00;94816.44;5041287;28;20201;-68
2024/03/11 02:22:22;;;;;;;1.53;1.10;;;;;;;6.80;100.00;94816.81;5040654;28;20209;-68
2024/03/11 02:24:50;;;;;;;1.27;0.97;;;;;;;6.78;100.00;94818.78;5040740;28;20478;-67
2024/03/11 02:27:16;;;;;;;1.17;0.93;;;;;;;6.72;100.00;94820.34;5042244;28;20211;-68
2024/03/11 02:29:43;;;;;;;1.93;1.23;;;;;;;6.70;100.00;94829.38;5042172;28;20205;-68
2024/03/11 02:32:10;;;;;;;3.23;1.00;;;;;;;6.79;100.00;94833.50;5041943;28;20217;-67
2024/03/11 02:34:36;;;;;;;1.60;0.93;;;;;;;6.78;100.00;94826.63;5041993;28;20228;-67
2024/03/11 02:37:03;;;;;;;1.67;1.00;;;;;;;6.69;100.00;94825.97;5042120;28;20227;-67
2024/03/11 02:39:29;;;;;;;1.43;1.03;;;;;;;6.50;100.00;94831.00;5041644;28;20562;-68
2024/03/11 02:41:57;;;;;;;4.50;1.17;;;;;;;6.61;100.00;94822.66;5042698;28;20205;-67
2024/03/11 02:44:24;;;;;;;1.33;0.90;;;;;;;6.52;100.00;94831.63;5041281;28;20794;-67
2024/03/11 02:46:50;;;;;;;2.83;1.40;;;;;;;6.45;100.00;94830.75;5042454;28;20205;-68
2024/03/11 02:49:18;;;;;;;1.50;1.00;;;;;;;6.48;100.00;94826.94;5042659;28;20205;-67
2024/03/11 02:51:44;;;;;;;1.70;1.10;;;;;;;6.35;100.00;94827.63;5042174;28;20730;-67
2024/03/11 02:54:12;;;;;;;2.50;1.40;;;;;;;6.43;100.00;94827.50;5041291;28;20229;-67
2024/03/11 02:56:39;;;;;;;2.20;1.40;;;;;;;6.47;100.00;94835.81;5042417;28;20567;-68
2024/03/11 02:59:06;;;;;;;1.80;1.40;;;;;;;6.75;100.00;94834.88;5041427;28;20209;-68
2024/03/11 03:01:33;;;;;;;1.87;1.23;;;;;;;6.41;100.00;94833.94;5041338;28;20397;-68
2024/03/11 03:04:00;;;;;;;2.90;1.77;;;;;;;6.50;100.00;94838.84;5041561;28;20711;-68
2024/03/11 03:06:27;;;;;;;2.33;1.67;;;;;;;6.57;100.00;94844.97;5040280;28;20202;-67
2024/03/11 03:08:54;;;;;;;3.90;2.00;;;;;;;6.41;100.00;94849.63;5041345;28;20328;-68
2024/03/11 03:11:21;;;;;;;2.63;1.53;;;;;;;6.38;100.00;94850.81;5041022;28;20236;-68
2024/03/11 03:13:47;;;;;;;3.17;1.63;;;;;;;6.27;100.00;94853.88;5042106;28;20596;-68
2024/03/11 03:16:16;;;;;;;3.23;1.80;;;;;;;6.35;100.00;94850.34;5041459;28;20594;-67
2024/03/11 03:18:43;;;;;;;2.30;1.63;;;;;;;6.17;100.00;94853.41;5041627;28;20213;-67
2024/03/11 03:21:10;;;;;;;2.90;2.03;;;;;;;6.26;100.00;94847.06;5040590;28;20208;-68
2024/03/11 03:23:37;;;;;;;3.57;1.87;;;;;;;6.17;100.00;94850.78;5040972;28;20225;-67
2024/03/11 03:26:04;;;;;;;2.90;1.70;;;;;;;6.34;100.00;94844.31;5040754;28;20537;-67
2024/03/11 03:28:31;;;;;;;4.80;1.80;;;;;;;6.16;100.00;94849.16;5042158;28;20209;-68
2024/03/11 03:30:58;;;;;;;4.00;1.80;;;;;;;6.32;100.00;94841.06;5040883;28;20240;-67
2024/03/11 03:33:27;;;;;;;4.93;2.40;;;;;;;6.37;100.00;94846.56;5040530;28;20215;-68
2024/03/11 03:35:54;;;;;;;3.53;1.90;;;;;;;6.18;100.00;94852.38;5039889;28;20219;-68
2024/03/11 03:38:20;;;;;;;3.00;1.77;;;;;;;6.09;100.00;94853.47;5041178;28;20201;-68
2024/03/11 03:40:47;;;;;;;3.30;1.90;;;;;;;6.04;100.00;94856.84;5040799;28;20304;-68
2024/03/11 03:43:14;;;;;;;3.80;1.67;;;;;;;6.07;100.00;94860.72;5040905;28;20870;-67
2024/03/11 03:45:40;;;;;;;2.83;1.60;;;;;;;6.13;100.00;94854.72;5040726;28;20652;-68
2024/03/11 03:48:07;;;;;;;3.77;1.80;;;;;;;6.06;100.00;94856.47;5040267;28;20212;-67
2024/03/11 03:50:35;;;;;;;3.23;1.73;;;;;;;6.13;100.00;94859.97;5040093;28;20220;-68
2024/03/11 03:53:02;;;;;;;4.40;2.03;;;;;;;6.17;100.00;94852.56;5040502;28;20213;-67
2024/03/11 03:55:30;;;;;;;3.03;1.87;;;;;;;6.08;100.00;94862.34;5039325;28;20225;-68
2024/03/11 03:57:56;;;;;;;6.00;2.60;;;;;;;6.06;100.00;94850.44;5037025;28;20205;-68
2024/03/11 04:00:23;;;;;;;2.33;1.60;;;;;;;6.09;100.00;94855.28;5036240;28;20209;-68
2024/03/11 04:02:51;;;;;;;6.87;3.57;;;;;;;6.15;100.00;94860.59;5036559;28;20209;-68
2024/03/11 04:05:20;;;;;;;8.77;3.97;;;;;;;6.10;100.00;94870.78;5035149;28;20220;-68
2024/03/11 04:07:48;;;;;;;6.00;3.47;;;;;;;6.07;100.00;94870.34;5036595;28;20421;-68
2024/03/11 04:10:17;;;;;;;8.77;3.67;;;;;;;6.03;100.00;94878.75;5036195;28;20952;-68
2024/03/11 04:12:45;;;;;;;14.13;4.10;;;;;;;6.09;100.00;94884.84;5036480;28;20235;-68
2024/03/11 04:15:13;;;;;;;9.23;3.80;;;;;;;6.09;100.00;94884.84;5035106;28;20237;-68
2024/03/11 04:17:40;;;;;;;14.90;5.47;;;;;;;5.99;100.00;94890.56;5035966;28;20448;-68
2024/03/11 04:20:11;;;;;;;9.63;3.47;;;;;;;6.04;100.00;94888.22;5036203;28;20510;-68
2024/03/11 04:22:38;;;;;;;9.10;3.20;;;;;;;5.96;100.00;94893.53;5036258;28;20204;-68
2024/03/11 04:25:07;;;;;;;12.83;3.00;;;;;;;6.16;100.00;94893.63;5035480;28;20275;-68
2024/03/11 04:27:34;;;;;;;15.00;4.37;;;;;;;5.87;100.00;94898.06;5035874;28;20511;-68
2024/03/11 04:30:01;;;;;;;8.83;3.10;;;;;;;6.02;100.00;94903.25;5036649;28;20205;-68
2024/03/11 04:32:28;;;;;;;20.57;7.13;;;;;;;5.84;100.00;94902.81;5036166;28;20235;-68
2024/03/11 04:34:54;;;;;;;15.07;5.73;;;;;;;5.88;100.00;94898.84;5034614;28;20326;-68
2024/03/11 04:37:21;;;;;;;15.80;4.73;;;;;;;5.82;100.00;94904.81;5035733;28;20701;-68
2024/03/11 04:39:48;;;;;;;29.57;6.23;;;;;;;5.97;100.00;94908.22;5035769;28;20197;-68
2024/03/11 04:42:16;;;;;;;5.70;2.47;;;;;;;6.09;100.00;94907.59;5035541;28;20262;-68
2024/03/11 04:44:43;;;;;;;5.63;2.20;;;;;;;5.91;100.00;94908.97;5035160;28;20883;-68
2024/03/11 04:47:10;;;;;;;4.80;2.10;;;;;;;5.81;100.00;94914.44;5036948;28;20377;-68
2024/03/11 04:49:37;;;;;;;3.10;1.80;;;;;;;5.86;100.00;94908.69;5036040;28;21425;-68
2024/03/11 04:52:04;;;;;;;4.10;2.17;;;;;;;5.85;100.00;94915.72;5036399;28;20229;-68
2024/03/11 04:54:33;;;;;;;14.13;3.07;;;;;;;5.87;100.00;94913.75;5035845;28;20240;-68
2024/03/11 04:57:00;;;;;;;25.77;5.43;;;;;;;5.96;100.00;94922.28;5035989;28;20235;-68
2024/03/11 04:59:28;;;;;;;56.17;7.73;;;;;;;6.04;100.00;94918.56;5036001;28;20209;-68
2024/03/11 05:01:54;;;;;;;12.07;3.47;;;;;;;5.92;100.00;94926.25;5036528;28;20568;-68
2024/03/11 05:04:21;;;;;;;4.23;2.27;;;;;;;5.86;100.00;94932.22;5035718;28;20228;-68
2024/03/11 05:06:48;;;;;;;5.93;2.30;;;;;;;5.87;100.00;94945.09;5035425;28;20255;-68
2024/03/11 05:09:15;;;;;;;4.03;1.90;;;;;;;5.84;100.00;94940.25;5036343;28;20204;-68
2024/03/11 05:11:41;;;;;;;3.77;2.00;;;;;;;5.85;100.00;94943.66;5036383;28;20225;-68
2024/03/11 05:14:09;;;;;;;4.40;1.87;;;;;;;5.76;100.00;94955.19;5036145;28;20229;-68
2024/03/11 05:16:37;;;;;;;4.03;2.23;;;;;;;5.75;100.00;94950.91;5035059;28;20201;-68
2024/03/11 05:19:04;;;;;;;3.80;1.97;;;;;;;5.61;100.00;94970.00;5040615;28;20205;-68
2024/03/11 05:21:32;;;;;;;3.57;2.03;;;;;;;5.64;100.00;94967.03;5039972;28;20212;-68
2024/03/11 05:23:58;;;;;;;2.67;1.70;;;;;;;5.60;100.00;94963.13;5039606;28;20231;-68
2024/03/11 05:26:25;;;;;;;3.43;2.10;;;;;;;5.57;100.00;94963.50;5038595;28;20205;-68
2024/03/11 05:28:52;;;;;;;2.80;2.10;;;;;;;5.49;100.00;94968.81;5039018;28;20742;-68
2024/03/11 05:31:18;;;;;;;4.60;2.73;;;;;;;5.43;100.00;94972.94;5039266;28;20931;-68
2024/03/11 05:33:46;;;;;;;2.80;2.00;;;;;;;5.47;100.00;94978.59;5039217;28;20235;-68
2024/03/11 05:36:13;;;;;;;3.77;2.27;;;;;;;5.32;100.00;94983.00;5038859;28;20651;-68
2024/03/11 05:38:40;;;;;;;2.83;1.90;;;;;;;5.35;100.00;94976.63;5039680;28;20212;-68
2024/03/11 05:41:06;;;;;;;4.80;1.93;;;;;;;5.30;100.00;94987.56;5040610;28;20204;-68
2024/03/11 05:43:33;;;;;;;4.23;1.57;;;;;;;5.11;100.00;94977.59;5038983;28;20757;-68
2024/03/11 05:45:59;;;;;;;4.73;1.90;;;;;;;5.02;100.00;94983.88;5038665;28;20212;-68
2024/03/11 05:48:26;;;;;;;4.47;1.67;;;;;;;5.03;100.00;94993.31;5040086;28;20219;-67
2024/03/11 05:51:01;;;;;;;3.90;1.70;;;;;;;5.10;100.00;94996.06;5039972;28;20219;-68
2024/03/11 05:53:28;;;;;;;3.00;1.90;;;;;;;4.94;100.00;95002.19;5039659;28;20672;-67
2024/03/11 05:55:55;;;;;;;4.53;1.63;;;;;;;4.80;100.00;95014.34;5038841;28;20224;-68
2024/03/11 05:58:26;;;;;;;2.60;1.67;;;;;;;4.72;100.00;95011.78;5039560;28;20239;-67
2024/03/11 06:00:53;;;;;;;3.77;1.83;;;;;;;4.67;100.00;95019.31;5039386;28;20216;-67
2024/03/11 06:03:19;;;;;;;2.83;1.57;;;;;;;4.79;100.00;95023.19;5039020;28;20208;-67
2024/03/11 06:05:48;;;;;;;4.17;1.57;;;;;;;4.95;100.00;95032.53;5038330;28;20220;-67
2024/03/11 06:08:16;;;;;;;4.07;1.73;;;;;;;4.99;100.00;95031.19;5038952;28;20220;-67
2024/03/11 06:10:43;;;;;;;2.87;1.60;;;;;;;4.85;100.00;95029.31;5038272;28;20212;-68
2024/03/11 06:13:10;;;;;;;3.03;1.70;;;;;;;4.97;100.00;95038.38;5038834;28;20221;-67
2024/03/11 06:15:37;;;;;;;3.03;1.70;;;;;;;5.05;100.00;95032.31;5038337;28;20205;-67
2024/03/11 06:18:04;;;;;;;3.03;1.87;;;;;;;5.19;100.00;95032.34;5038392;28;20216;-68
2024/03/11 06:20:31;;;;;;;3.27;1.47;;;;;;;5.21;100.00;95034.81;5038914;28;20216;-68
2024/03/11 06:22:59;;;;;;;3.50;1.63;;;;;;;5.29;100.00;95038.16;5039097;28;20201;-68
2024/03/11 06:25:27;;;;;;;5.37;1.70;;;;;;;5.48;100.00;95037.72;5037397;28;20765;-67
2024/03/11 06:27:54;;;;;;;2.53;1.43;;;;;;;5.36;100.00;95046.94;5038984;28;20578;-67
2024/03/11 06:30:22;;;;;;;5.43;1.97;;;;;;;5.41;100.00;95044.63;5039050;28;21260;-67
2024/03/11 06:32:50;;;;;;;3.30;2.20;;;;;;;5.52;100.00;95041.59;5038649;28;20227;-68
2024/03/11 06:35:17;;;;;;;2.90;1.87;;;;;;;5.50;100.00;95049.59;5037995;28;20264;-68
2024/03/11 06:37:44;;;;;;;3.03;1.80;;;;;;;5.68;100.00;95044.09;5038610;28;20217;-67
2024/03/11 06:40:16;;;;;;;3.43;1.80;;;;;;;5.86;100.00;95053.25;5038368;28;20208;-67
2024/03/11 06:42:45;;;;;;;3.27;1.60;;;;;;;5.88;100.00;95055.69;5038601;28;20197;-67
2024/03/11 06:45:11;;;;;;;2.20;1.20;;;;;;;5.91;100.00;95061.38;5038023;28;20236;-67
2024/03/11 06:47:38;;;;;;;2.63;1.73;;;;;;;6.05;100.00;95065.81;5038532;28;20205;-68
2024/03/11 06:50:06;;;;;;;3.07;1.73;;;;;;;6.16;100.00;95071.44;5038358;28;20209;-68
2024/03/11 06:52:33;;;;;;;2.97;2.00;;;;;;;6.20;100.00;95070.09;5038568;28;20224;-67
2024/03/11 06:55:00;;;;;;;2.77;1.40;;;;;;;6.22;100.00;95075.13;5038174;28;20229;-68
2024/03/11 06:57:25;;;;;;;2.83;1.70;;;;;;;6.36;100.00;95087.41;5034913;28;20205;-67
2024/03/11 06:59:54;;;;;;;2.63;1.60;;;;;;;6.48;100.00;95094.66;5037173;28;20228;-67
2024/03/11 07:02:21;;;;;;;1.87;1.27;;;;;;;6.39;100.00;95093.13;5037183;28;20201;-68
2024/03/11 07:04:48;;;;;;;1.20;0.93;;;;;;;6.48;100.00;95099.88;5036263;28;20597;-68
2024/03/11 07:07:15;;;;;;;2.43;1.47;;;;;;;6.53;100.00;95100.16;5037308;28;20208;-68
2024/03/11 07:09:41;;;;;;;2.70;1.10;;;;;;;6.46;100.00;95101.84;5037428;28;20197;-68
2024/03/11 07:12:08;;;;;;;1.57;1.20;;;;;;;6.56;100.00;95093.75;5036666;28;20232;-68
2024/03/11 07:14:37;;;;;;;1.87;1.23;;;;;;;6.56;100.00;95093.75;5036434;28;20258;-68
2024/03/11 07:17:05;;;;;;;2.50;1.37;;;;;;;7.04;100.00;95088.72;5036039;28;20201;-68
2024/03/11 07:19:32;;;;;;;1.90;1.40;;;;;;;6.99;100.00;95098.97;5035705;28;20208;-68
2024/03/11 07:21:58;;;;;;;2.43;1.63;;;;;;;7.29;100.00;95099.53;5037700;28;20971;-68
2024/03/11 07:24:25;;;;;;;1.60;1.20;;;;;;;7.27;100.00;95098.91;5036228;28;20221;-69
2024/03/11 07:26:52;;;;;;;1.30;0.90;;;;;;;7.63;100.00;95102.31;5036804;28;20700;-68
2024/03/11 07:29:19;;;;;;;2.10;1.40;;;;;;;7.75;100.00;95100.84;5037549;28;20205;-68
2024/03/11 07:31:46;;;;;;;4.90;1.20;;;;;;;7.72;100.00;95110.88;5037088;28;20220;-68
2024/03/11 07:34:14;;;;;;;1.70;1.10;;;;;;;7.66;100.00;95114.25;5037268;28;20237;-68
2024/03/11 07:36:40;;;;;;;4.73;2.80;;;;;;;7.54;100.00;95129.63;5037259;28;20208;-68
2024/03/11 07:39:10;;;;;;;1.63;1.23;;;;;;;7.59;100.00;95127.28;5035995;28;20943;-68
2024/03/11 07:41:37;;;;;;;1.80;1.10;;;;;;;7.39;100.00;95126.25;5034894;28;20205;-68
2024/03/11 07:44:03;;;;;;;1.70;1.10;;;;;;;7.29;100.00;95132.78;5036437;28;20231;-68
2024/03/11 07:46:30;;;;;;;1.60;1.10;;;;;;;7.55;100.00;95133.91;5036055;28;20201;-68
2024/03/11 07:48:59;;;;;;;2.13;1.30;;;;;;;7.37;100.00;95130.06;5037303;28;20283;-68
2024/03/11 07:51:27;;;;;;;1.53;1.10;;;;;;;7.86;100.00;95139.66;5036997;28;20205;-68
2024/03/11 07:53:55;;;;;;;1.50;1.10;;;;;;;7.88;100.00;95140.28;5036298;28;20232;-68
2024/03/11 07:56:21;;;;;;;1.90;1.10;;;;;;;7.84;100.00;95136.44;5036543;28;20216;-68
2024/03/11 07:58:48;;;;;;;1.17;0.90;;;;;;;7.80;100.00;95143.00;5037065;28;20608;-68
2024/03/11 08:01:16;;;;;;;2.90;1.10;;;;;;;7.82;100.00;95146.28;5036871;28;20385;-68
2024/03/11 08:03:44;;;;;;;1.60;1.10;;;;;;;8.01;100.00;95143.03;5036572;28;20928;-68
2024/03/11 08:06:10;;;;;;;1.20;1.00;;;;;;;7.99;100.00;95145.84;5036800;28;20581;-68
2024/03/11 08:08:38;;;;;;;1.27;1.00;;;;;;;8.22;100.00;95143.06;5037075;28;20216;-68
2024/03/11 08:11:06;;;;;;;3.07;1.63;;;;;;;7.88;100.00;95148.16;5036534;28;20217;-68
2024/03/11 08:13:32;;;;;;;1.87;1.27;;;;;;;8.22;100.00;95151.75;5036938;28;20278;-68
2024/03/11 08:15:59;;;;;;;2.77;1.27;;;;;;;8.36;100.00;95142.16;5036493;28;20209;-68
2024/03/11 08:18:26;;;;;;;2.40;1.17;;;;;;;8.57;100.00;95146.38;5036808;28;20672;-68
2024/03/11 08:20:53;;;;;;;2.50;1.40;;;;;;;8.40;100.00;95159.16;5036226;28;20228;-68
2024/03/11 08:23:20;;;;;;;1.37;0.90;;;;;;;8.74;100.00;95145.06;5035888;28;20263;-68
2024/03/11 08:25:49;;;;;;;1.23;0.90;;;;;;;8.75;100.00;95161.66;5034706;28;20672;-68
2024/03/11 08:28:16;;;;;;;1.77;1.00;;;;;;;8.65;100.00;95164.59;5035739;28;20213;-68
2024/03/11 08:30:42;;;;;;;2.40;1.40;;;;;;;8.97;100.00;95156.13;5036562;28;20197;-68
2024/03/11 08:33:09;;;;;;;2.33;1.53;;;;;;;9.02;100.00;95166.88;5035671;28;20217;-68
2024/03/11 08:35:36;;;;;;;1.83;1.00;;;;;;;8.90;100.00;95170.25;5032006;28;20646;-68
2024/03/11 08:38:03;;;;;;;9.47;2.60;;;;;;;9.04;100.00;95172.75;5035522;28;20201;-68
2024/03/11 08:40:30;;;;;;;4.00;1.10;;;;;;;8.98;100.00;95175.34;5034376;28;20212;-68
2024/03/11 08:42:58;;;;;;;3.53;1.47;;;;;;;9.54;100.00;95177.66;5035066;28;20592;-68
2024/03/11 08:45:27;;;;;;;9.53;2.33;;;;;;;9.16;100.00;95184.34;5034172;28;20221;-68
2024/03/11 08:47:54;;;;;;;1.40;1.10;;;;;;;9.09;100.00;95184.28;5035643;28;20201;-68
2024/03/11 08:50:21;;;;;;;1.43;0.93;;;;;;;9.58;100.00;95189.41;5034496;28;20251;-68
2024/03/11 08:52:49;;;;;;;3.37;1.50;;;;;;;9.56;100.00;95191.41;5033787;28;20240;-68
2024/03/11 08:55:16;;;;;;;3.30;1.23;;;;;;;9.72;100.00;95186.63;5034874;28;20216;-68
2024/03/11 08:57:45;;;;;;;1.73;1.27;;;;;;;9.44;100.00;95196.41;5034959;28;20205;-68
2024/03/11 09:00:15;;;;;;;2.07;1.47;;;;;;;9.66;100.00;95191.84;5034722;28;20286;-68
2024/03/11 09:02:44;;;;;;;1.93;1.13;;;;;;;9.44;100.00;95195.59;5034912;28;20340;-68
2024/03/11 09:05:12;;;;;;;2.80;1.40;;;;;;;9.69;100.00;95198.34;5033893;28;20267;-68
2024/03/11 09:07:40;;;;;;;2.07;1.60;;;;;;;9.94;100.00;95202.09;5034386;28;20232;-68
2024/03/11 09:10:07;;;;;;;1.83;1.40;;;;;;;10.11;100.00;95195.47;5034636;28;20201;-68
2024/03/11 09:12:34;;;;;;;2.67;1.33;;;;;;;9.96;100.00;95202.72;5035045;28;20235;-68
2024/03/11 09:15:01;;;;;;;6.93;1.53;;;;;;;10.36;100.00;95209.69;5033943;28;20248;-68
2024/03/11 09:17:28;;;;;;;2.10;1.00;;;;;;;10.38;100.00;95210.31;5034043;28;20641;-68
2024/03/11 09:19:55;;;;;;;1.13;0.90;;;;;;;9.91;100.00;95202.47;5033581;28;20213;-68
2024/03/11 09:22:21;;;;;;;2.00;1.33;;;;;;;10.36;100.00;95214.97;5034740;28;20226;-68
2024/03/11 09:24:48;;;;;;;2.50;1.37;;;;;;;10.79;100.00;95205.69;5033814;28;20225;-68
2024/03/11 09:27:17;;;;;;;1.70;1.30;;;;;;;10.87;100.00;95216.84;5032119;28;20698;-68
2024/03/11 09:29:45;;;;;;;1.80;1.37;;;;;;;10.38;100.00;95210.31;5031888;28;20251;-68
2024/03/11 09:32:11;;;;;;;1.43;1.10;;;;;;;10.52;100.00;95217.22;5033920;28;20205;-68
2024/03/11 09:34:39;;;;;;;2.47;1.30;;;;;;;10.92;100.00;95211.78;5032820;28;20237;-68
2024/03/11 09:37:09;;;;;;;1.87;1.10;;;;;;;10.93;100.00;95212.56;5034304;28;20586;-68
2024/03/11 09:39:35;;;;;;;2.37;1.40;;;;;;;10.95;100.00;95204.25;5033503;28;20201;-68
2024/03/11 09:42:05;;;;;;;0.60;0.60;;;;;;;11.02;100.00;95196.34;5033948;28;20206;-68
2024/03/11 09:44:31;;;;;;;1.33;1.00;;;;;;;10.93;100.00;95199.41;5032588;28;20236;-68
2024/03/11 09:47:00;;;;;;;1.93;1.10;;;;;;;11.00;100.00;95201.81;5032587;28;20211;-68
2024/03/11 09:49:26;;;;;;;0.97;0.90;;;;;;;10.98;100.00;95195.97;5031535;28;20205;-68
2024/03/11 09:51:55;;;;;;;1.10;1.00;;;;;;;11.32;100.00;95193.06;5032727;28;20201;-68
2024/03/11 09:54:23;;;;;;;2.43;1.47;;;;;;;11.48;100.00;95189.97;5032695;28;20232;-68
2024/03/11 09:56:53;;;;;;;3.10;1.53;;;;;;;11.21;100.00;95187.59;5032941;28;20288;-68
2024/03/11 09:59:24;;;;;;;3.70;1.13;;;;;;;11.06;100.00;95179.94;5035323;28;20211;-68
2024/03/11 10:01:53;;;;;;;2.73;1.63;;;;;;;11.40;100.00;95179.63;5034000;28;20197;-68
2024/03/11 10:04:21;;;;;;;3.13;1.50;;;;;;;11.08;100.00;95177.06;5035948;28;20217;-68
2024/03/11 10:06:57;;;;;;;1.50;0.87;;;;;;;11.53;100.00;95173.53;5032681;28;20248;-68
2024/03/11 10:09:24;;;;;;;1.80;1.20;;;;;;;11.68;100.00;95172.25;5035785;28;20216;-68
2024/03/11 10:12:03;;;;;;;1.50;1.03;;;;;;;11.91;100.00;95169.94;5037143;28;20197;-68
2024/03/11 10:14:33;;;;;;;1.00;0.83;;;;;;;11.81;100.00;95167.75;5036579;28;20221;-68
2024/03/11 10:17:17;;;;;;;1.67;0.90;;;;;;;12.10;100.00;95159.25;5036111;28;20197;-68
2024/03/11 10:19:51;;;;;;;2.20;1.13;;;;;;;12.05;100.00;95166.22;5035920;28;20204;-68
2024/03/11 10:22:23;;;;;;;1.07;0.93;;;;;;;12.10;100.00;95161.09;5036650;28;20201;-68
2024/03/11 10:24:52;;;;;;;1.13;1.00;;;;;;;11.89;100.00;95161.41;5035336;28;20275;-68
2024/03/11 10:27:20;;;;;;;0.73;0.70;;;;;;;12.11;100.00;95160.88;5036033;28;20201;-68
2024/03/11 10:29:47;;;;;;;0.70;0.70;;;;;;;11.93;100.00;95162.63;5036578;28;20197;-68
2024/03/11 10:32:32;;;;;;;1.07;0.87;;;;;;;12.96;100.00;95152.13;5035640;28;20205;-68
2024/03/11 10:34:59;;;;;;;1.20;0.93;;;;;;;12.10;100.00;95153.19;5034498;28;20233;-68
2024/03/11 10:37:27;;;;;;;0.83;0.60;;;;;;;12.38;100.00;95154.41;5036795;28;20228;-68
2024/03/11 10:39:59;;;;;;;0.87;0.80;;;;;;;12.23;100.00;95146.81;5035881;28;20205;-67
2024/03/11 10:42:28;;;;;;;0.70;0.70;;;;;;;12.48;100.00;95141.53;5035318;28;20197;-67
2024/03/11 10:44:55;;;;;;;2.37;1.10;;;;;;;12.74;99.06;95142.16;5035168;28;20229;-67
2024/03/11 10:47:23;;;;;;;1.10;0.90;;;;;;;12.85;99.47;95144.91;5036371;28;20208;-67
2024/03/11 10:49:53;;;;;;;2.93;0.97;;;;;;;13.09;96.65;95140.63;5034671;28;21282;-67
2024/03/11 10:52:22;;;;;;;2.07;0.97;;;;;;;13.35;94.13;95137.72;5035517;28;20194;-67
2024/03/11 10:54:51;;;;;;;1.07;0.80;;;;;;;13.15;96.80;95139.75;5034462;28;20225;-67
2024/03/11 10:57:28;;;;;;;5.87;1.53;;;;;;;13.73;100.00;95134.59;5035259;28;20274;-68
2024/03/11 10:59:55;;;;;;;1.43;0.70;;;;;;;13.57;96.93;95129.91;5036051;28;20706;-68
2024/03/11 11:02:23;;;;;;;0.97;0.87;;;;;;;13.65;90.81;95126.97;5035675;28;20198;-68
2024/03/11 11:04:52;;;;;;;3.43;0.90;;;;;;;13.38;91.14;95130.16;5034174;28;20221;-68
2024/03/11 11:07:29;;;;;;;1.13;0.90;;;;;;;13.54;93.34;95130.38;5035639;28;21303;-68
2024/03/11 11:10:01;;;;;;;1.83;0.90;;;;;;;13.89;92.40;95141.16;5035634;28;20217;-68
2024/03/11 11:12:29;;;;;;;1.13;0.80;;;;;;;13.89;90.46;95141.94;5035296;28;20198;-68
2024/03/11 11:14:58;;;;;;;0.93;0.70;;;;;;;13.93;87.54;95161.66;5033430;28;20221;-68
2024/03/11 11:17:28;;;;;;;1.30;0.90;;;;;;;13.88;88.65;95156.22;5032506;28;20298;-67
2024/03/11 11:19:56;;;;;;;2.25;1.00;;;;;;;14.24;86.38;95166.75;5034512;28;20205;-67
2024/03/11 11:22:25;;;;;;;1.03;0.80;;;;;;;14.06;84.55;95166.78;5035024;28;20193;-68
2024/03/11 11:24:52;;;;;;;1.77;0.88;;;;;;;14.00;86.15;95162.34;5034490;28;20217;-68
2024/03/11 11:27:25;;;;;;;0.60;0.57;;;;;;;14.26;82.33;95164.72;5035792;28;20217;-67
2024/03/11 11:29:52;;;;;;;1.52;0.85;;;;;;;14.37;84.52;95164.75;5034694;28;20691;-68
2024/03/11 11:32:21;;;;;;;0.80;0.50;;;;;;;14.48;74.37;95171.13;5034852;28;20205;-68
2024/03/11 11:34:48;;;;;;;1.37;0.63;;;;;;;14.64;74.08;95165.97;5033500;28;20221;-68